sensor_id;sensor_type;location;lat;lon;timestamp;P1;durP1;ratioP1;P2;durP2;ratioP2
10132;SDS011;5106;50.926;7.080;2023-07-22T00:01:18;5.90;;;4.68;;
10132;SDS011;5106;50.926;7.080;2023-07-22T00:03:44;5.30;;;4.50;;
10132;SDS011;5106;50.926;7.080;2023-07-22T00:06:09;4.95;;;4.45;;
10132;SDS011;5106;50.926;7.080;2023-07-22T00:08:36;7.13;;;4.53;;
10132;SDS011;5106;50.926;7.080;2023-07-22T00:11:03;5.00;;;4.50;;
10132;SDS011;5106;50.926;7.080;2023-07-22T00:13:29;5.82;;;4.50;;
10132;SDS011;5106;50.926;7.080;2023-07-22T00:15:55;7.68;;;5.05;;
10132;SDS011;5106;50.926;7.080;2023-07-22T00:18:21;7.38;;;4.60;;
10132;SDS011;5106;50.926;7.080;2023-07-22T00:20:49;5.68;;;4.80;;
10132;SDS011;5106;50.926;7.080;2023-07-22T00:23:15;6.35;;;5.25;;
10132;SDS011;5106;50.926;7.080;2023-07-22T00:25:41;5.75;;;4.60;;
10132;SDS011;5106;50.926;7.080;2023-07-22T00:28:06;5.80;;;4.82;;
10132;SDS011;5106;50.926;7.080;2023-07-22T00:30:32;6.57;;;4.65;;
10132;SDS011;5106;50.926;7.080;2023-07-22T00:32:59;5.47;;;4.57;;
10132;SDS011;5106;50.926;7.080;2023-07-22T00:35:25;5.55;;;5.03;;
10132;SDS011;5106;50.926;7.080;2023-07-22T00:37:51;5.45;;;4.75;;
10132;SDS011;5106;50.926;7.080;2023-07-22T00:40:17;6.25;;;4.70;;
10132;SDS011;5106;50.926;7.080;2023-07-22T00:42:44;5.13;;;4.60;;
10132;SDS011;5106;50.926;7.080;2023-07-22T00:45:09;7.22;;;4.75;;
10132;SDS011;5106;50.926;7.080;2023-07-22T00:47:35;6.45;;;4.63;;
10132;SDS011;5106;50.926;7.080;2023-07-22T00:50:02;6.75;;;5.00;;
10132;SDS011;5106;50.926;7.080;2023-07-22T00:52:29;6.15;;;4.70;;
10132;SDS011;5106;50.926;7.080;2023-07-22T00:58:51;5.05;;;4.50;;
10132;SDS011;5106;50.926;7.080;2023-07-22T01:01:17;5.57;;;4.88;;
10132;SDS011;5106;50.926;7.080;2023-07-22T01:03:42;7.40;;;5.32;;
10132;SDS011;5106;50.926;7.080;2023-07-22T01:06:08;5.97;;;4.85;;
10132;SDS011;5106;50.926;7.080;2023-07-22T01:08:35;7.93;;;5.38;;
10132;SDS011;5106;50.926;7.080;2023-07-22T01:11:00;5.60;;;4.82;;
10132;SDS011;5106;50.926;7.080;2023-07-22T01:13:26;7.10;;;4.93;;
10132;SDS011;5106;50.926;7.080;2023-07-22T01:15:52;7.28;;;4.78;;
10132;SDS011;5106;50.926;7.080;2023-07-22T01:18:18;5.13;;;4.40;;
10132;SDS011;5106;50.926;7.080;2023-07-22T01:20:43;5.57;;;4.97;;
10132;SDS011;5106;50.926;7.080;2023-07-22T01:23:10;7.07;;;4.70;;
10132;SDS011;5106;50.926;7.080;2023-07-22T01:25:36;8.23;;;5.35;;
10132;SDS011;5106;50.926;7.080;2023-07-22T01:28:02;6.97;;;5.25;;
10132;SDS011;5106;50.926;7.080;2023-07-22T01:30:28;5.28;;;4.72;;
10132;SDS011;5106;50.926;7.080;2023-07-22T01:32:53;7.30;;;6.07;;
10132;SDS011;5106;50.926;7.080;2023-07-22T01:35:19;7.95;;;5.53;;
10132;SDS011;5106;50.926;7.080;2023-07-22T01:37:45;7.85;;;5.40;;
10132;SDS011;5106;50.926;7.080;2023-07-22T01:40:11;8.07;;;5.55;;
10132;SDS011;5106;50.926;7.080;2023-07-22T01:42:38;7.70;;;5.50;;
10132;SDS011;5106;50.926;7.080;2023-07-22T01:45:04;6.40;;;5.57;;
10132;SDS011;5106;50.926;7.080;2023-07-22T01:47:32;7.03;;;5.95;;
10132;SDS011;5106;50.926;7.080;2023-07-22T01:49:59;6.38;;;5.45;;
10132;SDS011;5106;50.926;7.080;2023-07-22T01:52:25;9.55;;;6.07;;
10132;SDS011;5106;50.926;7.080;2023-07-22T01:54:50;7.35;;;5.78;;
10132;SDS011;5106;50.926;7.080;2023-07-22T01:57:16;7.68;;;5.68;;
10132;SDS011;5106;50.926;7.080;2023-07-22T01:59:41;8.30;;;5.72;;
10132;SDS011;5106;50.926;7.080;2023-07-22T02:02:07;7.75;;;6.20;;
10132;SDS011;5106;50.926;7.080;2023-07-22T02:04:32;7.57;;;5.05;;
10132;SDS011;5106;50.926;7.080;2023-07-22T02:06:58;6.78;;;5.50;;
10132;SDS011;5106;50.926;7.080;2023-07-22T02:09:24;6.45;;;5.18;;
10132;SDS011;5106;50.926;7.080;2023-07-22T02:11:49;6.88;;;5.93;;
10132;SDS011;5106;50.926;7.080;2023-07-22T02:14:15;7.53;;;5.85;;
10132;SDS011;5106;50.926;7.080;2023-07-22T02:16:40;6.68;;;5.55;;
10132;SDS011;5106;50.926;7.080;2023-07-22T02:19:06;6.85;;;5.65;;
10132;SDS011;5106;50.926;7.080;2023-07-22T02:21:31;6.72;;;5.70;;
10132;SDS011;5106;50.926;7.080;2023-07-22T02:23:57;7.18;;;5.50;;
10132;SDS011;5106;50.926;7.080;2023-07-22T02:26:23;8.55;;;5.85;;
10132;SDS011;5106;50.926;7.080;2023-07-22T02:28:48;7.05;;;5.68;;
10132;SDS011;5106;50.926;7.080;2023-07-22T02:31:14;9.88;;;6.22;;
10132;SDS011;5106;50.926;7.080;2023-07-22T02:33:40;7.32;;;5.75;;
10132;SDS011;5106;50.926;7.080;2023-07-22T02:36:05;7.40;;;5.68;;
10132;SDS011;5106;50.926;7.080;2023-07-22T02:38:31;7.65;;;5.90;;
10132;SDS011;5106;50.926;7.080;2023-07-22T02:41:03;6.95;;;5.97;;
10132;SDS011;5106;50.926;7.080;2023-07-22T02:43:31;7.93;;;5.93;;
10132;SDS011;5106;50.926;7.080;2023-07-22T02:45:59;8.13;;;5.65;;
10132;SDS011;5106;50.926;7.080;2023-07-22T02:48:26;7.07;;;5.53;;
10132;SDS011;5106;50.926;7.080;2023-07-22T02:50:51;9.18;;;5.82;;
10132;SDS011;5106;50.926;7.080;2023-07-22T02:53:17;7.40;;;5.65;;
10132;SDS011;5106;50.926;7.080;2023-07-22T02:55:44;7.80;;;5.80;;
10132;SDS011;5106;50.926;7.080;2023-07-22T02:58:11;8.57;;;5.90;;
10132;SDS011;5106;50.926;7.080;2023-07-22T03:00:37;6.43;;;5.65;;
10132;SDS011;5106;50.926;7.080;2023-07-22T03:03:03;6.93;;;5.63;;
10132;SDS011;5106;50.926;7.080;2023-07-22T03:05:31;6.78;;;5.60;;
10132;SDS011;5106;50.926;7.080;2023-07-22T03:07:57;6.72;;;5.57;;
10132;SDS011;5106;50.926;7.080;2023-07-22T03:10:23;7.20;;;6.15;;
10132;SDS011;5106;50.926;7.080;2023-07-22T03:12:53;7.93;;;5.75;;
10132;SDS011;5106;50.926;7.080;2023-07-22T03:15:21;7.72;;;6.38;;
10132;SDS011;5106;50.926;7.080;2023-07-22T03:17:47;7.07;;;5.45;;
10132;SDS011;5106;50.926;7.080;2023-07-22T03:20:13;7.65;;;5.32;;
10132;SDS011;5106;50.926;7.080;2023-07-22T03:22:42;6.95;;;6.22;;
10132;SDS011;5106;50.926;7.080;2023-07-22T03:25:09;6.97;;;5.35;;
10132;SDS011;5106;50.926;7.080;2023-07-22T03:27:35;7.72;;;5.53;;
10132;SDS011;5106;50.926;7.080;2023-07-22T03:30:02;7.30;;;5.15;;
10132;SDS011;5106;50.926;7.080;2023-07-22T03:32:28;7.15;;;5.38;;
10132;SDS011;5106;50.926;7.080;2023-07-22T03:34:54;8.05;;;5.60;;
10132;SDS011;5106;50.926;7.080;2023-07-22T03:37:20;6.90;;;5.50;;
10132;SDS011;5106;50.926;7.080;2023-07-22T03:39:45;9.27;;;5.55;;
10132;SDS011;5106;50.926;7.080;2023-07-22T03:42:11;6.72;;;5.63;;
10132;SDS011;5106;50.926;7.080;2023-07-22T03:44:36;7.35;;;5.88;;
10132;SDS011;5106;50.926;7.080;2023-07-22T03:47:02;7.75;;;5.47;;
10132;SDS011;5106;50.926;7.080;2023-07-22T03:49:28;7.80;;;5.35;;
10132;SDS011;5106;50.926;7.080;2023-07-22T03:51:53;6.80;;;5.80;;
10132;SDS011;5106;50.926;7.080;2023-07-22T03:54:19;6.70;;;5.32;;
10132;SDS011;5106;50.926;7.080;2023-07-22T03:56:45;7.30;;;5.22;;
10132;SDS011;5106;50.926;7.080;2023-07-22T03:59:10;8.73;;;5.10;;
10132;SDS011;5106;50.926;7.080;2023-07-22T04:01:36;8.68;;;5.90;;
10132;SDS011;5106;50.926;7.080;2023-07-22T04:04:01;9.15;;;5.70;;
10132;SDS011;5106;50.926;7.080;2023-07-22T04:06:27;9.10;;;5.03;;
10132;SDS011;5106;50.926;7.080;2023-07-22T04:08:52;7.40;;;5.28;;
10132;SDS011;5106;50.926;7.080;2023-07-22T04:11:18;5.53;;;4.97;;
10132;SDS011;5106;50.926;7.080;2023-07-22T04:13:43;8.55;;;6.03;;
10132;SDS011;5106;50.926;7.080;2023-07-22T04:16:09;8.07;;;5.72;;
10132;SDS011;5106;50.926;7.080;2023-07-22T04:18:34;10.52;;;5.93;;
10132;SDS011;5106;50.926;7.080;2023-07-22T04:21:00;7.88;;;5.45;;
10132;SDS011;5106;50.926;7.080;2023-07-22T04:23:26;7.72;;;5.20;;
10132;SDS011;5106;50.926;7.080;2023-07-22T04:25:52;7.28;;;5.50;;
10132;SDS011;5106;50.926;7.080;2023-07-22T04:28:18;7.13;;;5.50;;
10132;SDS011;5106;50.926;7.080;2023-07-22T04:30:53;7.20;;;4.93;;
10132;SDS011;5106;50.926;7.080;2023-07-22T04:33:24;5.90;;;5.03;;
10132;SDS011;5106;50.926;7.080;2023-07-22T04:35:50;8.15;;;5.68;;
10132;SDS011;5106;50.926;7.080;2023-07-22T04:38:18;8.10;;;5.70;;
10132;SDS011;5106;50.926;7.080;2023-07-22T04:40:43;7.47;;;5.18;;
10132;SDS011;5106;50.926;7.080;2023-07-22T04:43:09;6.50;;;5.35;;
10132;SDS011;5106;50.926;7.080;2023-07-22T04:45:37;7.63;;;5.80;;
10132;SDS011;5106;50.926;7.080;2023-07-22T04:48:08;8.15;;;5.10;;
10132;SDS011;5106;50.926;7.080;2023-07-22T04:50:34;8.35;;;5.35;;
10132;SDS011;5106;50.926;7.080;2023-07-22T04:53:00;6.28;;;5.68;;
10132;SDS011;5106;50.926;7.080;2023-07-22T04:55:25;10.50;;;5.72;;
10132;SDS011;5106;50.926;7.080;2023-07-22T04:57:54;6.90;;;5.22;;
10132;SDS011;5106;50.926;7.080;2023-07-22T05:00:20;7.63;;;5.75;;
10132;SDS011;5106;50.926;7.080;2023-07-22T05:02:47;7.25;;;5.43;;
10132;SDS011;5106;50.926;7.080;2023-07-22T05:05:13;9.82;;;5.85;;
10132;SDS011;5106;50.926;7.080;2023-07-22T05:07:39;6.70;;;5.25;;
10132;SDS011;5106;50.926;7.080;2023-07-22T05:10:06;7.82;;;5.40;;
10132;SDS011;5106;50.926;7.080;2023-07-22T05:12:36;12.85;;;5.43;;
10132;SDS011;5106;50.926;7.080;2023-07-22T05:15:03;7.32;;;5.05;;
10132;SDS011;5106;50.926;7.080;2023-07-22T05:17:29;10.02;;;5.65;;
10132;SDS011;5106;50.926;7.080;2023-07-22T05:19:56;6.35;;;5.57;;
10132;SDS011;5106;50.926;7.080;2023-07-22T05:22:22;7.68;;;5.30;;
10132;SDS011;5106;50.926;7.080;2023-07-22T05:24:47;8.25;;;5.28;;
10132;SDS011;5106;50.926;7.080;2023-07-22T05:27:13;5.60;;;5.00;;
10132;SDS011;5106;50.926;7.080;2023-07-22T05:29:39;7.00;;;5.68;;
10132;SDS011;5106;50.926;7.080;2023-07-22T05:32:05;7.65;;;5.25;;
10132;SDS011;5106;50.926;7.080;2023-07-22T05:34:31;7.50;;;5.13;;
10132;SDS011;5106;50.926;7.080;2023-07-22T05:36:57;5.68;;;5.07;;
10132;SDS011;5106;50.926;7.080;2023-07-22T05:39:23;6.82;;;5.25;;
10132;SDS011;5106;50.926;7.080;2023-07-22T05:41:51;8.20;;;5.00;;
10132;SDS011;5106;50.926;7.080;2023-07-22T05:44:16;6.18;;;5.32;;
10132;SDS011;5106;50.926;7.080;2023-07-22T05:46:42;7.50;;;5.45;;
10132;SDS011;5106;50.926;7.080;2023-07-22T05:49:08;5.85;;;5.22;;
10132;SDS011;5106;50.926;7.080;2023-07-22T05:51:34;7.32;;;5.45;;
10132;SDS011;5106;50.926;7.080;2023-07-22T05:53:59;8.82;;;6.05;;
10132;SDS011;5106;50.926;7.080;2023-07-22T05:56:25;8.68;;;5.05;;
10132;SDS011;5106;50.926;7.080;2023-07-22T05:58:51;6.75;;;5.50;;
10132;SDS011;5106;50.926;7.080;2023-07-22T06:01:16;6.90;;;4.97;;
10132;SDS011;5106;50.926;7.080;2023-07-22T06:03:42;10.90;;;5.82;;
10132;SDS011;5106;50.926;7.080;2023-07-22T06:06:09;7.70;;;5.85;;
10132;SDS011;5106;50.926;7.080;2023-07-22T06:08:35;8.45;;;5.13;;
10132;SDS011;5106;50.926;7.080;2023-07-22T06:11:01;8.05;;;5.55;;
10132;SDS011;5106;50.926;7.080;2023-07-22T06:13:26;7.30;;;5.38;;
10132;SDS011;5106;50.926;7.080;2023-07-22T06:15:52;7.18;;;5.13;;
10132;SDS011;5106;50.926;7.080;2023-07-22T06:18:18;7.28;;;5.10;;
10132;SDS011;5106;50.926;7.080;2023-07-22T06:20:44;5.57;;;4.90;;
10132;SDS011;5106;50.926;7.080;2023-07-22T06:23:10;8.65;;;5.10;;
10132;SDS011;5106;50.926;7.080;2023-07-22T06:25:35;6.78;;;5.38;;
10132;SDS011;5106;50.926;7.080;2023-07-22T06:28:01;7.28;;;4.80;;
10132;SDS011;5106;50.926;7.080;2023-07-22T06:30:26;7.07;;;4.97;;
10132;SDS011;5106;50.926;7.080;2023-07-22T06:32:52;11.30;;;5.35;;
10132;SDS011;5106;50.926;7.080;2023-07-22T06:35:18;6.38;;;4.70;;
10132;SDS011;5106;50.926;7.080;2023-07-22T06:37:44;8.15;;;5.00;;
10132;SDS011;5106;50.926;7.080;2023-07-22T06:40:09;5.63;;;4.88;;
10132;SDS011;5106;50.926;7.080;2023-07-22T06:42:35;7.88;;;4.90;;
10132;SDS011;5106;50.926;7.080;2023-07-22T06:45:01;7.30;;;4.95;;
10132;SDS011;5106;50.926;7.080;2023-07-22T06:47:27;6.13;;;5.03;;
10132;SDS011;5106;50.926;7.080;2023-07-22T06:49:53;7.35;;;5.63;;
10132;SDS011;5106;50.926;7.080;2023-07-22T06:52:18;7.18;;;5.05;;
10132;SDS011;5106;50.926;7.080;2023-07-22T06:54:44;7.10;;;4.63;;
10132;SDS011;5106;50.926;7.080;2023-07-22T06:57:10;5.15;;;4.55;;
10132;SDS011;5106;50.926;7.080;2023-07-22T06:59:35;5.72;;;4.70;;
10132;SDS011;5106;50.926;7.080;2023-07-22T07:02:03;8.50;;;5.13;;
10132;SDS011;5106;50.926;7.080;2023-07-22T07:04:29;7.40;;;5.35;;
10132;SDS011;5106;50.926;7.080;2023-07-22T07:06:55;6.38;;;5.57;;
10132;SDS011;5106;50.926;7.080;2023-07-22T07:09:21;7.07;;;5.00;;
10132;SDS011;5106;50.926;7.080;2023-07-22T07:11:46;6.03;;;5.15;;
10132;SDS011;5106;50.926;7.080;2023-07-22T07:14:12;5.50;;;4.90;;
10132;SDS011;5106;50.926;7.080;2023-07-22T07:16:38;8.63;;;4.82;;
10132;SDS011;5106;50.926;7.080;2023-07-22T07:19:03;7.20;;;4.68;;
10132;SDS011;5106;50.926;7.080;2023-07-22T07:21:29;6.97;;;4.55;;
10132;SDS011;5106;50.926;7.080;2023-07-22T07:23:55;7.47;;;4.78;;
10132;SDS011;5106;50.926;7.080;2023-07-22T07:26:24;6.45;;;5.40;;
10132;SDS011;5106;50.926;7.080;2023-07-22T07:28:50;6.15;;;5.28;;
10132;SDS011;5106;50.926;7.080;2023-07-22T07:31:16;6.30;;;5.00;;
10132;SDS011;5106;50.926;7.080;2023-07-22T07:33:42;10.27;;;5.30;;
10132;SDS011;5106;50.926;7.080;2023-07-22T07:36:08;6.75;;;5.53;;
10132;SDS011;5106;50.926;7.080;2023-07-22T07:38:34;7.20;;;5.20;;
10132;SDS011;5106;50.926;7.080;2023-07-22T07:41:02;5.40;;;4.65;;
10132;SDS011;5106;50.926;7.080;2023-07-22T07:43:29;7.57;;;4.85;;
10132;SDS011;5106;50.926;7.080;2023-07-22T07:48:39;7.28;;;5.05;;
10132;SDS011;5106;50.926;7.080;2023-07-22T07:51:05;6.30;;;4.50;;
10132;SDS011;5106;50.926;7.080;2023-07-22T07:53:31;6.72;;;5.30;;
10132;SDS011;5106;50.926;7.080;2023-07-22T07:55:56;7.78;;;4.95;;
10132;SDS011;5106;50.926;7.080;2023-07-22T07:58:22;9.55;;;5.38;;
10132;SDS011;5106;50.926;7.080;2023-07-22T08:00:47;5.57;;;5.00;;
10132;SDS011;5106;50.926;7.080;2023-07-22T08:03:13;6.60;;;5.05;;
10132;SDS011;5106;50.926;7.080;2023-07-22T08:05:39;7.25;;;5.93;;
10132;SDS011;5106;50.926;7.080;2023-07-22T08:08:04;7.93;;;5.20;;
10132;SDS011;5106;50.926;7.080;2023-07-22T08:10:30;12.82;;;5.95;;
10132;SDS011;5106;50.926;7.080;2023-07-22T08:12:56;5.57;;;4.95;;
10132;SDS011;5106;50.926;7.080;2023-07-22T08:15:21;6.25;;;5.28;;
10132;SDS011;5106;50.926;7.080;2023-07-22T08:17:47;7.00;;;5.30;;
10132;SDS011;5106;50.926;7.080;2023-07-22T08:20:12;5.75;;;4.88;;
10132;SDS011;5106;50.926;7.080;2023-07-22T08:22:38;5.72;;;4.60;;
10132;SDS011;5106;50.926;7.080;2023-07-22T08:25:04;7.30;;;4.95;;
10132;SDS011;5106;50.926;7.080;2023-07-22T08:27:30;5.35;;;4.85;;
10132;SDS011;5106;50.926;7.080;2023-07-22T08:30:49;8.18;;;6.07;;
10132;SDS011;5106;50.926;7.080;2023-07-22T08:45:23;6.90;;;5.25;;
10132;SDS011;5106;50.926;7.080;2023-07-22T09:01:34;8.07;;;4.88;;
10132;SDS011;5106;50.926;7.080;2023-07-22T09:10:42;7.22;;;5.00;;
10132;SDS011;5106;50.926;7.080;2023-07-22T09:13:08;8.93;;;5.05;;
10132;SDS011;5106;50.926;7.080;2023-07-22T09:15:35;5.65;;;4.95;;
10132;SDS011;5106;50.926;7.080;2023-07-22T09:18:02;6.72;;;4.85;;
10132;SDS011;5106;50.926;7.080;2023-07-22T09:20:31;6.50;;;5.18;;
10132;SDS011;5106;50.926;7.080;2023-07-22T09:22:59;8.88;;;5.57;;
10132;SDS011;5106;50.926;7.080;2023-07-22T09:25:26;10.48;;;5.05;;
10132;SDS011;5106;50.926;7.080;2023-07-22T09:27:53;8.02;;;5.43;;
10132;SDS011;5106;50.926;7.080;2023-07-22T09:30:21;8.38;;;4.63;;
10132;SDS011;5106;50.926;7.080;2023-07-22T09:36:17;5.38;;;4.53;;
10132;SDS011;5106;50.926;7.080;2023-07-22T09:49:44;4.13;;;3.72;;
10132;SDS011;5106;50.926;7.080;2023-07-22T10:11:44;8.73;;;4.00;;
10132;SDS011;5106;50.926;7.080;2023-07-22T10:14:10;4.13;;;3.47;;
10132;SDS011;5106;50.926;7.080;2023-07-22T10:16:38;8.38;;;4.30;;
10132;SDS011;5106;50.926;7.080;2023-07-22T10:19:06;4.65;;;3.83;;
10132;SDS011;5106;50.926;7.080;2023-07-22T10:21:34;4.00;;;3.60;;
10132;SDS011;5106;50.926;7.080;2023-07-22T10:24:58;5.07;;;3.45;;
10132;SDS011;5106;50.926;7.080;2023-07-22T10:31:02;4.72;;;3.38;;
10132;SDS011;5106;50.926;7.080;2023-07-22T10:45:53;3.63;;;2.60;;
10132;SDS011;5106;50.926;7.080;2023-07-22T11:05:04;4.28;;;2.80;;
10132;SDS011;5106;50.926;7.080;2023-07-22T11:08:13;3.20;;;2.58;;
10132;SDS011;5106;50.926;7.080;2023-07-22T11:10:45;4.55;;;2.55;;
10132;SDS011;5106;50.926;7.080;2023-07-22T11:13:22;3.38;;;3.00;;
10132;SDS011;5106;50.926;7.080;2023-07-22T11:15:55;3.15;;;2.65;;
10132;SDS011;5106;50.926;7.080;2023-07-22T11:18:23;3.58;;;2.38;;
10132;SDS011;5106;50.926;7.080;2023-07-22T11:21:09;2.90;;;2.60;;
10132;SDS011;5106;50.926;7.080;2023-07-22T11:23:35;4.65;;;2.60;;
10132;SDS011;5106;50.926;7.080;2023-07-22T11:26:01;3.63;;;2.70;;
10132;SDS011;5106;50.926;7.080;2023-07-22T11:28:28;3.55;;;2.45;;
10132;SDS011;5106;50.926;7.080;2023-07-22T11:30:54;7.05;;;2.70;;
10132;SDS011;5106;50.926;7.080;2023-07-22T11:33:20;3.13;;;2.70;;
10132;SDS011;5106;50.926;7.080;2023-07-22T11:35:53;4.25;;;2.50;;
10132;SDS011;5106;50.926;7.080;2023-07-22T11:40:56;4.47;;;2.53;;
10132;SDS011;5106;50.926;7.080;2023-07-22T12:06:59;2.15;;;1.95;;
10132;SDS011;5106;50.926;7.080;2023-07-22T12:09:25;2.90;;;2.65;;
10132;SDS011;5106;50.926;7.080;2023-07-22T12:11:55;6.80;;;2.08;;
10132;SDS011;5106;50.926;7.080;2023-07-22T12:14:23;3.85;;;2.67;;
10132;SDS011;5106;50.926;7.080;2023-07-22T12:16:52;2.45;;;2.25;;
10132;SDS011;5106;50.926;7.080;2023-07-22T12:19:21;3.42;;;2.50;;
10132;SDS011;5106;50.926;7.080;2023-07-22T12:21:47;2.78;;;2.50;;
10132;SDS011;5106;50.926;7.080;2023-07-22T12:24:14;3.33;;;2.53;;
10132;SDS011;5106;50.926;7.080;2023-07-22T12:26:40;2.40;;;2.20;;
10132;SDS011;5106;50.926;7.080;2023-07-22T12:29:07;2.50;;;2.03;;
10132;SDS011;5106;50.926;7.080;2023-07-22T12:31:33;3.42;;;2.38;;
10132;SDS011;5106;50.926;7.080;2023-07-22T12:33:59;2.42;;;2.22;;
10132;SDS011;5106;50.926;7.080;2023-07-22T12:36:24;2.13;;;1.92;;
10132;SDS011;5106;50.926;7.080;2023-07-22T12:38:50;2.80;;;2.42;;
10132;SDS011;5106;50.926;7.080;2023-07-22T12:41:16;3.45;;;2.50;;
10132;SDS011;5106;50.926;7.080;2023-07-22T12:43:41;2.70;;;2.20;;
10132;SDS011;5106;50.926;7.080;2023-07-22T12:46:07;2.40;;;2.17;;
10132;SDS011;5106;50.926;7.080;2023-07-22T12:48:36;5.45;;;2.50;;
10132;SDS011;5106;50.926;7.080;2023-07-22T12:51:02;2.60;;;2.40;;
10132;SDS011;5106;50.926;7.080;2023-07-22T13:01:19;3.75;;;2.10;;
10132;SDS011;5106;50.926;7.080;2023-07-22T13:03:45;3.38;;;2.05;;
10132;SDS011;5106;50.926;7.080;2023-07-22T13:06:10;2.50;;;2.03;;
10132;SDS011;5106;50.926;7.080;2023-07-22T13:08:36;2.17;;;1.98;;
10132;SDS011;5106;50.926;7.080;2023-07-22T13:11:02;2.20;;;2.00;;
10132;SDS011;5106;50.926;7.080;2023-07-22T13:13:28;2.67;;;2.08;;
10132;SDS011;5106;50.926;7.080;2023-07-22T13:15:54;2.28;;;2.08;;
10132;SDS011;5106;50.926;7.080;2023-07-22T13:18:19;2.40;;;2.20;;
10132;SDS011;5106;50.926;7.080;2023-07-22T13:20:45;2.10;;;1.90;;
10132;SDS011;5106;50.926;7.080;2023-07-22T13:23:10;2.47;;;2.28;;
10132;SDS011;5106;50.926;7.080;2023-07-22T13:25:36;2.40;;;2.20;;
10132;SDS011;5106;50.926;7.080;2023-07-22T13:28:02;2.00;;;1.80;;
10132;SDS011;5106;50.926;7.080;2023-07-22T13:30:38;3.15;;;1.90;;
10132;SDS011;5106;50.926;7.080;2023-07-22T13:33:03;3.33;;;2.22;;
10132;SDS011;5106;50.926;7.080;2023-07-22T13:35:29;2.60;;;2.22;;
10132;SDS011;5106;50.926;7.080;2023-07-22T13:37:55;2.80;;;2.40;;
10132;SDS011;5106;50.926;7.080;2023-07-22T13:40:21;3.15;;;2.20;;
10132;SDS011;5106;50.926;7.080;2023-07-22T13:42:47;2.85;;;2.33;;
10132;SDS011;5106;50.926;7.080;2023-07-22T13:45:12;3.33;;;2.60;;
10132;SDS011;5106;50.926;7.080;2023-07-22T13:47:38;3.95;;;2.42;;
10132;SDS011;5106;50.926;7.080;2023-07-22T13:50:04;3.13;;;2.20;;
10132;SDS011;5106;50.926;7.080;2023-07-22T13:52:30;2.85;;;2.35;;
10132;SDS011;5106;50.926;7.080;2023-07-22T13:54:55;2.95;;;2.40;;
10132;SDS011;5106;50.926;7.080;2023-07-22T13:57:21;3.90;;;2.42;;
10132;SDS011;5106;50.926;7.080;2023-07-22T13:59:47;4.28;;;2.38;;
10132;SDS011;5106;50.926;7.080;2023-07-22T14:02:12;2.55;;;2.35;;
10132;SDS011;5106;50.926;7.080;2023-07-22T14:04:38;2.60;;;2.20;;
10132;SDS011;5106;50.926;7.080;2023-07-22T14:07:04;2.53;;;2.33;;
10132;SDS011;5106;50.926;7.080;2023-07-22T14:09:30;3.53;;;2.85;;
10132;SDS011;5106;50.926;7.080;2023-07-22T14:11:55;2.50;;;2.20;;
10132;SDS011;5106;50.926;7.080;2023-07-22T14:14:21;4.50;;;2.45;;
10132;SDS011;5106;50.926;7.080;2023-07-22T14:16:53;12.50;;;3.55;;
10132;SDS011;5106;50.926;7.080;2023-07-22T14:19:21;2.33;;;2.13;;
10132;SDS011;5106;50.926;7.080;2023-07-22T14:21:48;4.90;;;2.70;;
10132;SDS011;5106;50.926;7.080;2023-07-22T14:24:13;3.30;;;2.70;;
10132;SDS011;5106;50.926;7.080;2023-07-22T14:26:39;2.78;;;2.45;;
10132;SDS011;5106;50.926;7.080;2023-07-22T14:29:05;2.60;;;2.40;;
10132;SDS011;5106;50.926;7.080;2023-07-22T14:31:30;3.63;;;2.78;;
10132;SDS011;5106;50.926;7.080;2023-07-22T14:33:56;3.72;;;2.58;;
10132;SDS011;5106;50.926;7.080;2023-07-22T14:36:21;2.88;;;2.58;;
10132;SDS011;5106;50.926;7.080;2023-07-22T14:38:47;2.75;;;2.40;;
10132;SDS011;5106;50.926;7.080;2023-07-22T14:41:13;3.75;;;2.70;;
10132;SDS011;5106;50.926;7.080;2023-07-22T14:43:38;3.58;;;2.90;;
10132;SDS011;5106;50.926;7.080;2023-07-22T14:46:04;3.60;;;2.55;;
10132;SDS011;5106;50.926;7.080;2023-07-22T14:48:29;3.00;;;2.70;;
10132;SDS011;5106;50.926;7.080;2023-07-22T14:50:55;4.07;;;2.60;;
10132;SDS011;5106;50.926;7.080;2023-07-22T14:53:21;2.90;;;2.50;;
10132;SDS011;5106;50.926;7.080;2023-07-22T14:55:46;5.53;;;3.15;;
10132;SDS011;5106;50.926;7.080;2023-07-22T14:58:12;5.90;;;3.05;;
10132;SDS011;5106;50.926;7.080;2023-07-22T15:00:38;6.00;;;3.30;;
10132;SDS011;5106;50.926;7.080;2023-07-22T15:03:03;3.95;;;2.80;;
10132;SDS011;5106;50.926;7.080;2023-07-22T15:05:29;3.08;;;2.78;;
10132;SDS011;5106;50.926;7.080;2023-07-22T15:07:54;3.33;;;3.03;;
10132;SDS011;5106;50.926;7.080;2023-07-22T15:10:20;5.20;;;3.13;;
10132;SDS011;5106;50.926;7.080;2023-07-22T15:12:46;4.45;;;3.17;;
10132;SDS011;5106;50.926;7.080;2023-07-22T15:15:12;3.83;;;2.90;;
10132;SDS011;5106;50.926;7.080;2023-07-22T15:17:37;3.40;;;3.08;;
10132;SDS011;5106;50.926;7.080;2023-07-22T15:20:03;13.30;;;3.60;;
10132;SDS011;5106;50.926;7.080;2023-07-22T15:22:30;9.95;;;3.55;;
10132;SDS011;5106;50.926;7.080;2023-07-22T15:24:55;3.20;;;2.90;;
10132;SDS011;5106;50.926;7.080;2023-07-22T15:27:21;4.82;;;3.05;;
10132;SDS011;5106;50.926;7.080;2023-07-22T15:29:47;3.60;;;2.70;;
10132;SDS011;5106;50.926;7.080;2023-07-22T15:32:12;3.50;;;2.78;;
10132;SDS011;5106;50.926;7.080;2023-07-22T15:34:38;3.65;;;2.90;;
10132;SDS011;5106;50.926;7.080;2023-07-22T15:37:04;3.92;;;2.97;;
10132;SDS011;5106;50.926;7.080;2023-07-22T15:39:29;3.95;;;3.20;;
10132;SDS011;5106;50.926;7.080;2023-07-22T15:41:55;4.10;;;3.22;;
10132;SDS011;5106;50.926;7.080;2023-07-22T15:44:21;4.18;;;3.33;;
10132;SDS011;5106;50.926;7.080;2023-07-22T15:46:52;4.63;;;3.22;;
10132;SDS011;5106;50.926;7.080;2023-07-22T15:49:18;6.18;;;3.50;;
10132;SDS011;5106;50.926;7.080;2023-07-22T15:51:44;3.83;;;3.00;;
10132;SDS011;5106;50.926;7.080;2023-07-22T15:54:09;5.60;;;3.30;;
10132;SDS011;5106;50.926;7.080;2023-07-22T15:56:35;4.28;;;3.40;;
10132;SDS011;5106;50.926;7.080;2023-07-22T15:59:02;3.95;;;3.22;;
10132;SDS011;5106;50.926;7.080;2023-07-22T16:01:28;4.45;;;2.88;;
10132;SDS011;5106;50.926;7.080;2023-07-22T16:03:56;4.70;;;3.30;;
10132;SDS011;5106;50.926;7.080;2023-07-22T16:06:21;7.88;;;3.42;;
10132;SDS011;5106;50.926;7.080;2023-07-22T16:08:47;7.13;;;3.45;;
10132;SDS011;5106;50.926;7.080;2023-07-22T16:11:13;7.60;;;3.47;;
10132;SDS011;5106;50.926;7.080;2023-07-22T16:13:38;12.35;;;3.60;;
10132;SDS011;5106;50.926;7.080;2023-07-22T16:16:04;11.45;;;4.07;;
10132;SDS011;5106;50.926;7.080;2023-07-22T16:18:29;3.53;;;3.13;;
10132;SDS011;5106;50.926;7.080;2023-07-22T16:20:55;3.40;;;2.92;;
10132;SDS011;5106;50.926;7.080;2023-07-22T16:23:22;4.80;;;3.10;;
10132;SDS011;5106;50.926;7.080;2023-07-22T16:25:48;4.10;;;3.40;;
10132;SDS011;5106;50.926;7.080;2023-07-22T16:28:14;4.00;;;2.60;;
10132;SDS011;5106;50.926;7.080;2023-07-22T16:30:39;3.38;;;3.08;;
10132;SDS011;5106;50.926;7.080;2023-07-22T16:33:05;7.20;;;2.90;;
10132;SDS011;5106;50.926;7.080;2023-07-22T16:35:30;4.00;;;3.10;;
10132;SDS011;5106;50.926;7.080;2023-07-22T16:37:56;3.80;;;2.78;;
10132;SDS011;5106;50.926;7.080;2023-07-22T16:40:22;3.13;;;2.83;;
10132;SDS011;5106;50.926;7.080;2023-07-22T16:42:47;5.20;;;3.45;;
10132;SDS011;5106;50.926;7.080;2023-07-22T16:45:13;5.53;;;3.45;;
10132;SDS011;5106;50.926;7.080;2023-07-22T16:47:38;3.45;;;2.92;;
10132;SDS011;5106;50.926;7.080;2023-07-22T16:50:04;4.80;;;3.17;;
10132;SDS011;5106;50.926;7.080;2023-07-22T16:52:30;4.95;;;3.30;;
10132;SDS011;5106;50.926;7.080;2023-07-22T16:54:56;5.25;;;3.35;;
10132;SDS011;5106;50.926;7.080;2023-07-22T16:57:21;5.70;;;3.88;;
10132;SDS011;5106;50.926;7.080;2023-07-22T16:59:47;5.20;;;3.03;;
10132;SDS011;5106;50.926;7.080;2023-07-22T17:02:13;4.38;;;3.05;;
10132;SDS011;5106;50.926;7.080;2023-07-22T17:04:38;3.25;;;2.70;;
10132;SDS011;5106;50.926;7.080;2023-07-22T17:07:04;4.55;;;2.75;;
10132;SDS011;5106;50.926;7.080;2023-07-22T17:09:29;5.65;;;3.00;;
10132;SDS011;5106;50.926;7.080;2023-07-22T17:11:55;4.82;;;2.90;;
10132;SDS011;5106;50.926;7.080;2023-07-22T17:14:21;3.65;;;2.80;;
10132;SDS011;5106;50.926;7.080;2023-07-22T17:16:46;5.13;;;2.53;;